sensor_id;sensor_type;location;lat;lon;timestamp;pressure;altitude;pressure_sealevel;temperature;humidity
71299;BME280;59083;47.974;21.722;2022-09-17T00:00:08;99453.34;;;16.02;77.75
71299;BME280;59083;47.974;21.722;2022-09-17T00:03:09;99458.06;;;15.95;76.76
71299;BME280;59083;47.974;21.722;2022-09-17T00:06:11;99455.94;;;15.97;76.88
71299;BME280;59083;47.974;21.722;2022-09-17T00:09:12;99472.22;;;15.91;76.56
71299;BME280;59083;47.974;21.722;2022-09-17T00:12:14;99470.59;;;15.90;76.00
71299;BME280;59083;47.974;21.722;2022-09-17T00:15:15;99468.72;;;15.90;76.07
71299;BME280;59083;47.974;21.722;2022-09-17T00:18:17;99475.97;;;15.90;75.75
71299;BME280;59083;47.974;21.722;2022-09-17T00:21:19;99467.84;;;15.85;75.68
71299;BME280;59083;47.974;21.722;2022-09-17T00:24:20;99467.84;;;15.85;75.64
71299;BME280;59083;47.974;21.722;2022-09-17T00:27:21;99460.03;;;15.83;75.29
71299;BME280;59083;47.974;21.722;2022-09-17T00:30:23;99456.53;;;15.83;75.41
71299;BME280;59083;47.974;21.722;2022-09-17T00:33:24;99458.41;;;15.82;75.50
71299;BME280;59083;47.974;21.722;2022-09-17T00:36:25;99464.00;;;15.81;75.55
71299;BME280;59083;47.974;21.722;2022-09-17T00:39:27;99461.00;;;15.77;75.79
71299;BME280;59083;47.974;21.722;2022-09-17T00:42:28;99456.78;;;15.81;75.85
71299;BME280;59083;47.974;21.722;2022-09-17T00:45:30;99459.69;;;15.80;76.07
71299;BME280;59083;47.974;21.722;2022-09-17T00:48:32;99462.63;;;15.78;76.37
71299;BME280;59083;47.974;21.722;2022-09-17T00:51:37;99453.19;;;15.76;76.10
71299;BME280;59083;47.974;21.722;2022-09-17T00:54:42;99452.06;;;15.72;76.18
71299;BME280;59083;47.974;21.722;2022-09-17T00:57:45;99460.81;;;15.67;76.60
71299;BME280;59083;47.974;21.722;2022-09-17T01:00:46;99459.59;;;15.58;76.83
71299;BME280;59083;47.974;21.722;2022-09-17T01:03:47;99455.28;;;15.57;76.80
71299;BME280;59083;47.974;21.722;2022-09-17T01:10:06;99462.09;;;15.48;76.84
71299;BME280;59083;47.974;21.722;2022-09-17T01:16:48;99452.87;;;15.44;76.50
71299;BME280;59083;47.974;21.722;2022-09-17T01:20:11;99450.69;;;15.41;76.75
71299;BME280;59083;47.974;21.722;2022-09-17T01:23:34;99450.69;;;15.41;76.49
71299;BME280;59083;47.974;21.722;2022-09-17T01:26:49;99456.12;;;15.46;76.29
71299;BME280;59083;47.974;21.722;2022-09-17T01:30:02;99453.75;;;15.49;76.08
71299;BME280;59083;47.974;21.722;2022-09-17T01:33:16;99450.84;;;15.51;76.09
71299;BME280;59083;47.974;21.722;2022-09-17T01:40:07;99454.25;;;15.46;77.01
71299;BME280;59083;47.974;21.722;2022-09-17T01:43:21;99449.72;;;15.47;77.19
71299;BME280;59083;47.974;21.722;2022-09-17T01:46:50;99448.66;;;15.48;77.13
71299;BME280;59083;47.974;21.722;2022-09-17T01:49:54;99459.13;;;15.49;77.24
71299;BME280;59083;47.974;21.722;2022-09-17T01:52:57;99457.19;;;15.45;77.55
71299;BME280;59083;47.974;21.722;2022-09-17T01:56:01;99458.81;;;15.46;76.99
71299;BME280;59083;47.974;21.722;2022-09-17T01:59:10;99457.00;;;15.35;76.97
71299;BME280;59083;47.974;21.722;2022-09-17T02:06:01;99458.97;;;15.39;77.70
71299;BME280;59083;47.974;21.722;2022-09-17T02:09:17;99458.63;;;15.36;77.35
71299;BME280;59083;47.974;21.722;2022-09-17T02:12:24;99446.84;;;15.37;77.26
71299;BME280;59083;47.974;21.722;2022-09-17T02:15:37;99443.50;;;15.29;77.21
71299;BME280;59083;47.974;21.722;2022-09-17T02:19:05;99440.72;;;15.24;77.47
71299;BME280;59083;47.974;21.722;2022-09-17T02:22:21;99440.72;;;15.24;77.44
71299;BME280;59083;47.974;21.722;2022-09-17T02:25:35;99434.44;;;15.19;77.28
71299;BME280;59083;47.974;21.722;2022-09-17T02:28:46;99435.81;;;15.21;77.07
71299;BME280;59083;47.974;21.722;2022-09-17T02:31:48;99414.84;;;15.18;76.76
71299;BME280;59083;47.974;21.722;2022-09-17T02:34:49;99426.41;;;15.19;76.71
71299;BME280;59083;47.974;21.722;2022-09-17T02:37:51;99425.56;;;15.18;76.78
71299;BME280;59083;47.974;21.722;2022-09-17T02:41:04;99430.44;;;15.21;76.53
71299;BME280;59083;47.974;21.722;2022-09-17T02:58:21;99417.09;;;15.10;77.38
71299;BME280;59083;47.974;21.722;2022-09-17T03:01:31;99414.66;;;15.08;77.36
71299;BME280;59083;47.974;21.722;2022-09-17T03:04:35;99416.84;;;15.11;77.26
71299;BME280;59083;47.974;21.722;2022-09-17T03:07:38;99423.28;;;15.10;77.49
71299;BME280;59083;47.974;21.722;2022-09-17T03:10:39;99430.75;;;15.08;77.61
71299;BME280;59083;47.974;21.722;2022-09-17T03:13:41;99424.81;;;15.06;77.91
71299;BME280;59083;47.974;21.722;2022-09-17T03:16:42;99417.34;;;15.08;77.84
71299;BME280;59083;47.974;21.722;2022-09-17T03:19:43;99416.75;;;15.06;78.23
71299;BME280;59083;47.974;21.722;2022-09-17T03:22:45;99418.50;;;15.12;78.20
71299;BME280;59083;47.974;21.722;2022-09-17T03:25:47;99418.50;;;15.12;78.40
71299;BME280;59083;47.974;21.722;2022-09-17T03:28:49;99418.03;;;15.04;78.76
71299;BME280;59083;47.974;21.722;2022-09-17T03:31:50;99406.53;;;15.03;78.37
71299;BME280;59083;47.974;21.722;2022-09-17T03:34:52;99404.88;;;15.02;78.77
71299;BME280;59083;47.974;21.722;2022-09-17T03:37:54;99402.66;;;14.99;78.87
71299;BME280;59083;47.974;21.722;2022-09-17T03:41:00;99403.72;;;14.98;79.08
71299;BME280;59083;47.974;21.722;2022-09-17T03:44:02;99404.72;;;14.92;79.20
71299;BME280;59083;47.974;21.722;2022-09-17T03:47:03;99398.75;;;14.90;79.17
71299;BME280;59083;47.974;21.722;2022-09-17T03:50:05;99394.94;;;14.86;79.59
71299;BME280;59083;47.974;21.722;2022-09-17T03:53:07;99394.13;;;14.85;80.27
71299;BME280;59083;47.974;21.722;2022-09-17T03:56:08;99402.41;;;14.84;81.00
71299;BME280;59083;47.974;21.722;2022-09-17T03:59:09;99409.28;;;14.80;80.66
71299;BME280;59083;47.974;21.722;2022-09-17T04:02:10;99404.38;;;14.77;80.53
71299;BME280;59083;47.974;21.722;2022-09-17T04:05:12;99400.66;;;14.78;81.29
71299;BME280;59083;47.974;21.722;2022-09-17T04:08:13;99404.97;;;14.79;80.97
71299;BME280;59083;47.974;21.722;2022-09-17T04:11:14;99407.44;;;14.80;80.35
71299;BME280;59083;47.974;21.722;2022-09-17T04:14:15;99387.25;;;14.78;80.42
71299;BME280;59083;47.974;21.722;2022-09-17T04:17:17;99397.97;;;14.78;80.20
71299;BME280;59083;47.974;21.722;2022-09-17T04:20:18;99391.56;;;14.79;80.15
71299;BME280;59083;47.974;21.722;2022-09-17T04:23:19;99383.53;;;14.79;80.10
71299;BME280;59083;47.974;21.722;2022-09-17T04:26:20;99381.38;;;14.81;79.51
71299;BME280;59083;47.974;21.722;2022-09-17T04:29:22;99373.94;;;14.83;80.00
71299;BME280;59083;47.974;21.722;2022-09-17T04:32:23;99360.91;;;14.75;80.36
71299;BME280;59083;47.974;21.722;2022-09-17T04:35:24;99354.47;;;14.76;79.70
71299;BME280;59083;47.974;21.722;2022-09-17T04:38:25;99335.69;;;14.76;79.87
71299;BME280;59083;47.974;21.722;2022-09-17T04:41:27;99341.16;;;14.81;79.47
71299;BME280;59083;47.974;21.722;2022-09-17T04:44:28;99343.84;;;14.81;79.40
71299;BME280;59083;47.974;21.722;2022-09-17T04:47:29;99355.25;;;14.88;79.16
71299;BME280;59083;47.974;21.722;2022-09-17T04:50:31;99355.59;;;14.92;78.87
71299;BME280;59083;47.974;21.722;2022-09-17T04:53:32;99347.09;;;14.83;79.33
71299;BME280;59083;47.974;21.722;2022-09-17T04:56:33;99335.69;;;14.76;79.96
71299;BME280;59083;47.974;21.722;2022-09-17T04:59:35;99335.31;;;14.84;80.12
71299;BME280;59083;47.974;21.722;2022-09-17T05:02:36;99339.66;;;14.85;79.31
71299;BME280;59083;47.974;21.722;2022-09-17T05:05:37;99336.38;;;14.83;79.36
71299;BME280;59083;47.974;21.722;2022-09-17T05:08:38;99326.22;;;14.85;79.63
71299;BME280;59083;47.974;21.722;2022-09-17T05:11:40;99313.28;;;14.82;79.86
71299;BME280;59083;47.974;21.722;2022-09-17T05:14:41;99303.94;;;14.84;79.80
71299;BME280;59083;47.974;21.722;2022-09-17T05:17:42;99302.56;;;14.82;79.18
71299;BME280;59083;47.974;21.722;2022-09-17T05:20:43;99314.44;;;14.86;79.14
71299;BME280;59083;47.974;21.722;2022-09-17T05:23:45;99323.53;;;14.85;80.07
71299;BME280;59083;47.974;21.722;2022-09-17T05:26:47;99327.19;;;14.79;80.65
71299;BME280;59083;47.974;21.722;2022-09-17T05:29:49;99337.13;;;14.95;80.52
71299;BME280;59083;47.974;21.722;2022-09-17T05:32:58;99327.00;;;14.97;80.92
71299;BME280;59083;47.974;21.722;2022-09-17T05:35:59;99338.94;;;15.06;80.70
71299;BME280;59083;47.974;21.722;2022-09-17T05:39:01;99346.03;;;15.12;80.85
71299;BME280;59083;47.974;21.722;2022-09-17T05:42:02;99337.81;;;15.02;81.47
71299;BME280;59083;47.974;21.722;2022-09-17T05:45:03;99346.03;;;15.12;81.68
71299;BME280;59083;47.974;21.722;2022-09-17T05:48:10;99341.94;;;15.10;82.13
71299;BME280;59083;47.974;21.722;2022-09-17T05:51:11;99342.06;;;15.15;82.85
71299;BME280;59083;47.974;21.722;2022-09-17T05:54:13;99356.59;;;15.02;83.38
71299;BME280;59083;47.974;21.722;2022-09-17T05:57:14;99358.50;;;14.90;84.35
71299;BME280;59083;47.974;21.722;2022-09-17T06:00:16;99354.78;;;14.91;84.71
71299;BME280;59083;47.974;21.722;2022-09-17T06:03:19;99362.78;;;15.03;84.62
71299;BME280;59083;47.974;21.722;2022-09-17T06:06:22;99370.09;;;15.07;84.86
71299;BME280;59083;47.974;21.722;2022-09-17T06:09:23;99367.97;;;15.09;85.59
71299;BME280;59083;47.974;21.722;2022-09-17T06:12:24;99371.62;;;15.03;86.57
71299;BME280;59083;47.974;21.722;2022-09-17T06:15:26;99366.66;;;14.95;87.62
71299;BME280;59083;47.974;21.722;2022-09-17T06:18:29;99365.50;;;14.91;87.57
71299;BME280;59083;47.974;21.722;2022-09-17T06:21:30;99361.59;;;14.99;88.63
71299;BME280;59083;47.974;21.722;2022-09-17T06:24:31;99365.38;;;14.98;89.36
71299;BME280;59083;47.974;21.722;2022-09-17T06:27:33;99365.97;;;14.88;89.72
71299;BME280;59083;47.974;21.722;2022-09-17T06:30:35;99359.19;;;14.97;89.43
71299;BME280;59083;47.974;21.722;2022-09-17T06:33:37;99350.16;;;15.03;89.23
71299;BME280;59083;47.974;21.722;2022-09-17T06:36:38;99352.16;;;14.79;91.07
71299;BME280;59083;47.974;21.722;2022-09-17T06:39:40;99363.47;;;14.98;90.54
71299;BME280;59083;47.974;21.722;2022-09-17T06:42:41;99362.25;;;14.89;90.99
71299;BME280;59083;47.974;21.722;2022-09-17T06:45:43;99375.19;;;14.92;91.82
71299;BME280;59083;47.974;21.722;2022-09-17T06:48:44;99395.38;;;14.83;92.75
71299;BME280;59083;47.974;21.722;2022-09-17T06:51:45;99386.88;;;14.86;92.88
71299;BME280;59083;47.974;21.722;2022-09-17T06:54:46;99394.53;;;14.94;91.89
71299;BME280;59083;47.974;21.722;2022-09-17T06:57:47;99393.63;;;14.88;93.53
71299;BME280;59083;47.974;21.722;2022-09-17T07:00:49;99403.06;;;14.91;93.51
71299;BME280;59083;47.974;21.722;2022-09-17T07:03:50;99408.91;;;14.88;93.88
71299;BME280;59083;47.974;21.722;2022-09-17T07:06:51;99406.16;;;15.00;93.41
71299;BME280;59083;47.974;21.722;2022-09-17T07:09:53;99410.81;;;15.04;92.99
71299;BME280;59083;47.974;21.722;2022-09-17T07:12:54;99398.06;;;15.11;92.23
71299;BME280;59083;47.974;21.722;2022-09-17T07:15:58;99398.66;;;15.13;92.48
71299;BME280;59083;47.974;21.722;2022-09-17T07:19:03;99405.75;;;15.19;92.03
71299;BME280;59083;47.974;21.722;2022-09-17T07:22:05;99408.97;;;15.21;92.25
71299;BME280;59083;47.974;21.722;2022-09-17T07:25:07;99409.47;;;15.18;92.06
71299;BME280;59083;47.974;21.722;2022-09-17T07:28:08;99414.84;;;15.18;92.84
71299;BME280;59083;47.974;21.722;2022-09-17T07:31:10;99406.06;;;15.23;92.40
71299;BME280;59083;47.974;21.722;2022-09-17T07:34:12;99411.28;;;15.29;92.95
71299;BME280;59083;47.974;21.722;2022-09-17T07:37:14;99417.31;;;15.37;92.42
71299;BME280;59083;47.974;21.722;2022-09-17T07:40:15;99412.13;;;15.47;92.28
71299;BME280;59083;47.974;21.722;2022-09-17T07:43:16;99417.69;;;15.57;91.10
71299;BME280;59083;47.974;21.722;2022-09-17T07:46:18;99412.31;;;15.57;90.91
71299;BME280;59083;47.974;21.722;2022-09-17T07:49:20;99417.38;;;15.53;91.21
71299;BME280;59083;47.974;21.722;2022-09-17T07:52:21;99411.19;;;15.53;90.98
71299;BME280;59083;47.974;21.722;2022-09-17T07:55:22;99406.47;;;15.60;90.11
71299;BME280;59083;47.974;21.722;2022-09-17T07:58:31;99392.16;;;15.54;90.53
71299;BME280;59083;47.974;21.722;2022-09-17T08:01:34;99398.81;;;15.52;90.90
71299;BME280;59083;47.974;21.722;2022-09-17T08:04:36;99397.81;;;15.58;90.50
71299;BME280;59083;47.974;21.722;2022-09-17T08:07:37;99393.91;;;15.49;90.64
71299;BME280;59083;47.974;21.722;2022-09-17T08:10:38;99390.75;;;15.52;90.82
71299;BME280;59083;47.974;21.722;2022-09-17T08:13:40;99386.41;;;15.51;90.84
71299;BME280;59083;47.974;21.722;2022-09-17T08:16:41;99380.16;;;15.62;90.52
71299;BME280;59083;47.974;21.722;2022-09-17T08:19:42;99379.59;;;15.60;90.40
71299;BME280;59083;47.974;21.722;2022-09-17T08:22:44;99385.97;;;15.54;90.63
71299;BME280;59083;47.974;21.722;2022-09-17T08:25:53;99370.56;;;15.66;89.97
71299;BME280;59083;47.974;21.722;2022-09-17T08:28:55;99375.94;;;15.66;90.01
71299;BME280;59083;47.974;21.722;2022-09-17T08:31:56;99382.53;;;15.75;89.93
71299;BME280;59083;47.974;21.722;2022-09-17T08:34:57;99393.56;;;15.95;89.11
71299;BME280;59083;47.974;21.722;2022-09-17T08:37:58;99384.44;;;15.96;88.82
71299;BME280;59083;47.974;21.722;2022-09-17T08:44:31;99366.84;;;16.05;87.58
71299;BME280;59083;47.974;21.722;2022-09-17T08:47:36;99368.09;;;16.20;87.76
71299;BME280;59083;47.974;21.722;2022-09-17T08:50:39;99378.28;;;16.18;86.35
71299;BME280;59083;47.974;21.722;2022-09-17T08:54:08;99383.63;;;16.34;85.43
71299;BME280;59083;47.974;21.722;2022-09-17T09:00:42;99377.81;;;16.21;86.23
71299;BME280;59083;47.974;21.722;2022-09-17T09:07:07;99379.09;;;16.18;85.90
71299;BME280;59083;47.974;21.722;2022-09-17T09:10:14;99379.38;;;16.17;86.44
71299;BME280;59083;47.974;21.722;2022-09-17T09:13:20;99379.19;;;16.23;85.75
71299;BME280;59083;47.974;21.722;2022-09-17T09:16:25;99366.22;;;16.42;84.85
71299;BME280;59083;47.974;21.722;2022-09-17T09:19:29;99363.16;;;16.55;84.44
71299;BME280;59083;47.974;21.722;2022-09-17T09:22:50;99369.75;;;16.64;82.98
71299;BME280;59083;47.974;21.722;2022-09-17T09:25:59;99371.38;;;16.65;82.74
71299;BME280;59083;47.974;21.722;2022-09-17T09:35:17;99377.50;;;16.82;81.41
71299;BME280;59083;47.974;21.722;2022-09-17T09:38:32;99372.12;;;16.82;81.79
71299;BME280;59083;47.974;21.722;2022-09-17T09:41:48;99384.00;;;16.86;82.18
71299;BME280;59083;47.974;21.722;2022-09-17T09:44:52;99381.25;;;16.81;82.15
71299;BME280;59083;47.974;21.722;2022-09-17T09:48:36;99374.66;;;16.67;82.88
71299;BME280;59083;47.974;21.722;2022-09-17T09:51:51;99382.38;;;16.85;82.67
71299;BME280;59083;47.974;21.722;2022-09-17T09:55:19;99378.63;;;17.13;81.71
71299;BME280;59083;47.974;21.722;2022-09-17T09:58:35;99368.25;;;17.27;80.66
71299;BME280;59083;47.974;21.722;2022-09-17T10:01:39;99363.38;;;17.24;80.35
71299;BME280;59083;47.974;21.722;2022-09-17T10:04:42;99371.09;;;17.42;79.50
71299;BME280;59083;47.974;21.722;2022-09-17T10:07:44;99379.22;;;17.47;79.65
71299;BME280;59083;47.974;21.722;2022-09-17T10:11:05;99375.87;;;17.35;79.66
71299;BME280;59083;47.974;21.722;2022-09-17T10:14:27;99367.22;;;17.33;79.44
71299;BME280;59083;47.974;21.722;2022-09-17T10:17:29;99363.53;;;17.44;80.08
71299;BME280;59083;47.974;21.722;2022-09-17T10:20:30;99367.91;;;17.50;79.34
71299;BME280;59083;47.974;21.722;2022-09-17T10:23:35;99373.28;;;17.50;79.70
71299;BME280;59083;47.974;21.722;2022-09-17T10:26:38;99376.94;;;17.66;79.04
71299;BME280;59083;47.974;21.722;2022-09-17T10:29:43;99378.47;;;17.57;78.77
71299;BME280;59083;47.974;21.722;2022-09-17T10:33:16;99372.16;;;17.73;78.55
71299;BME280;59083;47.974;21.722;2022-09-17T10:36:38;99371.44;;;17.83;77.35
71299;BME280;59083;47.974;21.722;2022-09-17T10:39:40;99377.56;;;17.78;77.85
71299;BME280;59083;47.974;21.722;2022-09-17T10:42:50;99374.88;;;17.78;78.08
71299;BME280;59083;47.974;21.722;2022-09-17T10:46:17;99380.34;;;17.56;78.36
71299;BME280;59083;47.974;21.722;2022-09-17T10:49:36;99377.47;;;17.63;79.07
71299;BME280;59083;47.974;21.722;2022-09-17T10:52:39;99375.84;;;17.62;79.76
71299;BME280;59083;47.974;21.722;2022-09-17T10:59:20;99376.22;;;17.17;81.96
71299;BME280;59083;47.974;21.722;2022-09-17T11:06:06;99383.84;;;16.71;83.01
71299;BME280;59083;47.974;21.722;2022-09-17T11:12:49;99386.56;;;16.33;84.51
71299;BME280;59083;47.974;21.722;2022-09-17T11:16:17;99372.03;;;16.12;85.47
71299;BME280;59083;47.974;21.722;2022-09-17T11:25:58;99364.72;;;16.07;86.79
71299;BME280;59083;47.974;21.722;2022-09-17T11:36:02;99378.63;;;15.66;90.46
71299;BME280;59083;47.974;21.722;2022-09-17T11:39:14;99375.94;;;15.66;91.07
71299;BME280;59083;47.974;21.722;2022-09-17T11:42:21;99373.50;;;15.64;90.52
71299;BME280;59083;47.974;21.722;2022-09-17T11:45:43;99370.97;;;15.58;91.52
71299;BME280;59083;47.974;21.722;2022-09-17T11:48:58;99372.09;;;15.62;92.49
71299;BME280;59083;47.974;21.722;2022-09-17T11:52:10;99370.47;;;15.61;93.00
71299;BME280;59083;47.974;21.722;2022-09-17T11:55:23;99373.25;;;15.66;93.45
71299;BME280;59083;47.974;21.722;2022-09-17T11:58:47;99368.19;;;15.69;95.02
71299;BME280;59083;47.974;21.722;2022-09-17T12:05:41;99351.25;;;15.69;96.08
71299;BME280;59083;47.974;21.722;2022-09-17T12:08:59;99363.94;;;15.74;97.03
71299;BME280;59083;47.974;21.722;2022-09-17T12:12:16;99362.00;;;15.69;96.62
71299;BME280;59083;47.974;21.722;2022-09-17T12:15:24;99348.19;;;15.60;98.04
71299;BME280;59083;47.974;21.722;2022-09-17T12:18:45;99330.00;;;15.51;97.14
71299;BME280;59083;47.974;21.722;2022-09-17T12:21:51;99328.66;;;15.32;99.08
71299;BME280;59083;47.974;21.722;2022-09-17T12:24:54;99322.84;;;15.40;99.37
71299;BME280;59083;47.974;21.722;2022-09-17T12:28:04;99325.97;;;15.32;99.54
71299;BME280;59083;47.974;21.722;2022-09-17T12:31:15;99319.84;;;15.19;99.54
71299;BME280;59083;47.974;21.722;2022-09-17T12:37:46;99288.44;;;15.37;99.04
71299;BME280;59083;47.974;21.722;2022-09-17T12:41:22;99280.47;;;15.42;99.33
71299;BME280;59083;47.974;21.722;2022-09-17T12:51:23;99270.19;;;15.39;96.81
71299;BME280;59083;47.974;21.722;2022-09-17T12:54:43;99267.84;;;15.59;98.75
71299;BME280;59083;47.974;21.722;2022-09-17T13:01:09;99254.25;;;15.65;96.72
71299;BME280;59083;47.974;21.722;2022-09-17T13:17:45;99224.94;;;15.64;98.09
71299;BME280;59083;47.974;21.722;2022-09-17T13:24:17;99226.59;;;15.65;98.14
71299;BME280;59083;47.974;21.722;2022-09-17T13:27:24;99221.97;;;15.60;98.82
71299;BME280;59083;47.974;21.722;2022-09-17T13:30:59;99218.59;;;15.70;99.87
71299;BME280;59083;47.974;21.722;2022-09-17T13:34:02;99215.44;;;15.78;99.14
71299;BME280;59083;47.974;21.722;2022-09-17T13:37:16;99213.97;;;15.87;99.83
71299;BME280;59083;47.974;21.722;2022-09-17T13:40:47;99207.03;;;15.91;99.08
71299;BME280;59083;47.974;21.722;2022-09-17T13:43:49;99205.97;;;15.92;98.75
71299;BME280;59083;47.974;21.722;2022-09-17T13:47:14;99194.41;;;15.92;98.85
71299;BME280;59083;47.974;21.722;2022-09-17T13:50:37;99194.59;;;15.85;98.80
71299;BME280;59083;47.974;21.722;2022-09-17T13:53:38;99194.47;;;15.75;95.94
71299;BME280;59083;47.974;21.722;2022-09-17T13:56:43;99195.09;;;15.82;97.28
71299;BME280;59083;47.974;21.722;2022-09-17T13:59:57;99181.66;;;15.82;96.00
71299;BME280;59083;47.974;21.722;2022-09-17T14:03:44;99176.03;;;15.84;95.93
71299;BME280;59083;47.974;21.722;2022-09-17T14:06:50;99163.97;;;15.86;96.63
71299;BME280;59083;47.974;21.722;2022-09-17T14:10:00;99172.59;;;15.88;97.08
71299;BME280;59083;47.974;21.722;2022-09-17T14:13:24;99170.97;;;15.87;96.97
71299;BME280;59083;47.974;21.722;2022-09-17T14:19:48;99161.13;;;15.71;98.03
71299;BME280;59083;47.974;21.722;2022-09-17T14:22:58;99134.25;;;15.71;97.80
71299;BME280;59083;47.974;21.722;2022-09-17T14:26:04;99136.38;;;15.69;97.22
71299;BME280;59083;47.974;21.722;2022-09-17T14:32:50;99161.50;;;15.58;96.25
71299;BME280;59083;47.974;21.722;2022-09-17T14:36:01;99176.59;;;15.64;98.34
71299;BME280;59083;47.974;21.722;2022-09-17T14:39:15;99157.22;;;15.62;98.41
71299;BME280;59083;47.974;21.722;2022-09-17T14:42:29;99156.75;;;15.65;98.67
71299;BME280;59083;47.974;21.722;2022-09-17T14:45:40;99160.25;;;15.65;98.88
71299;BME280;59083;47.974;21.722;2022-09-17T14:48:42;99156.75;;;15.65;100.00
71299;BME280;59083;47.974;21.722;2022-09-17T14:51:43;99151.88;;;15.62;100.00
71299;BME280;59083;47.974;21.722;2022-09-17T14:54:44;99155.06;;;15.59;100.00
71299;BME280;59083;47.974;21.722;2022-09-17T14:57:56;99148.13;;;15.63;100.00
71299;BME280;59083;47.974;21.722;2022-09-17T15:00:58;99154.31;;;15.63;100.00
71299;BME280;59083;47.974;21.722;2022-09-17T15:07:13;99154.00;;;15.60;100.00
71299;BME280;59083;47.974;21.722;2022-09-17T15:10:18;99123.59;;;15.54;100.00
71299;BME280;59083;47.974;21.722;2022-09-17T15:13:24;99109.25;;;15.49;100.00
71299;BME280;59083;47.974;21.722;2022-09-17T15:16:27;99124.22;;;15.45;100.00
71299;BME280;59083;47.974;21.722;2022-09-17T15:19:37;99148.97;;;15.47;100.00
71299;BME280;59083;47.974;21.722;2022-09-17T15:22:40;99172.06;;;15.48;100.00
71299;BME280;59083;47.974;21.722;2022-09-17T15:25:43;99183.38;;;15.50;100.00
71299;BME280;59083;47.974;21.722;2022-09-17T15:28:46;99193.06;;;15.51;100.00
71299;BME280;59083;47.974;21.722;2022-09-17T15:31:49;99193.56;;;15.48;100.00
71299;BME280;59083;47.974;21.722;2022-09-17T15:38:27;99177.37;;;15.43;99.82
71299;BME280;59083;47.974;21.722;2022-09-17T15:41:33;99183.75;;;15.37;99.67
71299;BME280;59083;47.974;21.722;2022-09-17T15:44:34;99182.34;;;15.34;99.40
71299;BME280;59083;47.974;21.722;2022-09-17T15:47:54;99163.25;;;15.30;99.25
71299;BME280;59083;47.974;21.722;2022-09-17T15:50:58;99137.34;;;15.19;100.00
71299;BME280;59083;47.974;21.722;2022-09-17T15:54:02;99114.66;;;15.10;100.00
71299;BME280;59083;47.974;21.722;2022-09-17T15:57:05;99116.78;;;15.08;100.00
71299;BME280;59083;47.974;21.722;2022-09-17T16:00:11;99112.16;;;15.04;100.00
71299;BME280;59083;47.974;21.722;2022-09-17T16:10:09;99144.88;;;14.84;98.91
71299;BME280;59083;47.974;21.722;2022-09-17T16:13:10;99152.84;;;14.79;98.61
71299;BME280;59083;47.974;21.722;2022-09-17T16:16:14;99172.38;;;14.74;99.22
71299;BME280;59083;47.974;21.722;2022-09-17T16:19:16;99176.34;;;14.72;98.72
71299;BME280;59083;47.974;21.722;2022-09-17T16:22:18;99195.09;;;14.72;99.95
71299;BME280;59083;47.974;21.722;2022-09-17T16:25:24;99198.38;;;14.74;100.00
71299;BME280;59083;47.974;21.722;2022-09-17T16:28:25;99173.66;;;14.72;100.00
71299;BME280;59083;47.974;21.722;2022-09-17T16:31:27;99162.75;;;14.62;100.00
71299;BME280;59083;47.974;21.722;2022-09-17T16:34:28;99155.63;;;14.51;100.00
71299;BME280;59083;47.974;21.722;2022-09-17T16:37:29;99152.94;;;14.51;100.00
71299;BME280;59083;47.974;21.722;2022-09-17T16:40:31;99140.97;;;14.41;100.00
71299;BME280;59083;47.974;21.722;2022-09-17T16:43:33;99134.94;;;14.34;100.00
71299;BME280;59083;47.974;21.722;2022-09-17T16:46:34;99110.75;;;14.29;100.00
71299;BME280;59083;47.974;21.722;2022-09-17T16:49:35;99106.22;;;14.18;99.60
71299;BME280;59083;47.974;21.722;2022-09-17T16:52:37;99108.28;;;14.11;99.54
71299;BME280;59083;47.974;21.722;2022-09-17T16:55:38;99102.84;;;14.06;99.18
71299;BME280;59083;47.974;21.722;2022-09-17T16:58:39;99100.44;;;13.93;99.04
71299;BME280;59083;47.974;21.722;2022-09-17T17:01:41;99104.16;;;13.92;99.79
71299;BME280;59083;47.974;21.722;2022-09-17T17:04:43;99101.91;;;13.84;99.01
71299;BME280;59083;47.974;21.722;2022-09-17T17:07:44;99106.56;;;13.77;99.46
71299;BME280;59083;47.974;21.722;2022-09-17T17:10:48;99094.69;;;13.73;100.00
71299;BME280;59083;47.974;21.722;2022-09-17T17:13:49;99101.50;;;13.63;99.50
71299;BME280;59083;47.974;21.722;2022-09-17T17:16:50;99111.53;;;13.56;99.34
71299;BME280;59083;47.974;21.722;2022-09-17T17:19:52;99099.53;;;13.59;99.59
71299;BME280;59083;47.974;21.722;2022-09-17T17:22:54;99093.28;;;13.53;99.71
71299;BME280;59083;47.974;21.722;2022-09-17T17:25:55;99100.25;;;13.54;99.64
71299;BME280;59083;47.974;21.722;2022-09-17T17:28:56;99112.50;;;13.39;99.17
71299;BME280;59083;47.974;21.722;2022-09-17T17:31:58;99119.25;;;13.41;98.80
71299;BME280;59083;47.974;21.722;2022-09-17T17:34:59;99126.13;;;13.49;99.66
71299;BME280;59083;47.974;21.722;2022-09-17T17:38:00;99109.69;;;13.45;99.86
71299;BME280;59083;47.974;21.722;2022-09-17T17:41:04;99116.50;;;13.36;98.27
71299;BME280;59083;47.974;21.722;2022-09-17T17:44:07;99121.25;;;13.34;97.62
71299;BME280;59083;47.974;21.722;2022-09-17T17:47:09;99114.75;;;13.30;98.01
71299;BME280;59083;47.974;21.722;2022-09-17T17:50:10;99113.12;;;13.29;98.01
71299;BME280;59083;47.974;21.722;2022-09-17T17:53:12;99113.03;;;13.24;98.48
71299;BME280;59083;47.974;21.722;2022-09-17T17:56:13;99111.88;;;13.20;98.53
71299;BME280;59083;47.974;21.722;2022-09-17T17:59:14;99107.19;;;13.27;98.76
71299;BME280;59083;47.974;21.722;2022-09-17T18:02:15;99093.03;;;13.15;98.36
71299;BME280;59083;47.974;21.722;2022-09-17T18:05:16;99088.25;;;13.17;99.42
71299;BME280;59083;47.974;21.722;2022-09-17T18:08:18;99085.47;;;13.12;99.17
71299;BME280;59083;47.974;21.722;2022-09-17T18:11:20;99090.47;;;12.97;99.46
71299;BME280;59083;47.974;21.722;2022-09-17T18:14:21;99099.31;;;13.09;99.70